createdAt,value
2022-10-22T00:02:42.680Z,13.60
2022-10-22T00:05:45.828Z,13.70
2022-10-22T00:08:49.102Z,13.70
2022-10-22T00:11:52.228Z,13.70
2022-10-22T00:14:56.749Z,13.70
2022-10-22T00:17:59.903Z,13.70
2022-10-22T00:21:03.339Z,13.70
2022-10-22T00:24:06.818Z,13.70
2022-10-22T00:27:11.934Z,13.70
2022-10-22T00:30:16.480Z,13.70
2022-10-22T00:33:19.572Z,13.70
2022-10-22T00:36:23.947Z,13.70
2022-10-22T00:39:28.275Z,13.70
2022-10-22T00:42:31.395Z,13.70
2022-10-22T00:45:35.861Z,13.70
2022-10-22T00:48:39.029Z,13.70
2022-10-22T00:51:42.188Z,13.70
2022-10-22T00:54:45.383Z,13.70
2022-10-22T00:57:49.342Z,13.70
2022-10-22T01:00:54.182Z,13.70
2022-10-22T01:03:57.456Z,13.70
2022-10-22T01:07:00.870Z,13.60
2022-10-22T01:10:09.905Z,13.60
2022-10-22T01:13:27.216Z,13.60
2022-10-22T01:16:39.211Z,13.60
2022-10-22T01:20:00.513Z,13.50
2022-10-22T01:23:18.358Z,13.50
2022-10-22T01:26:29.139Z,13.40
2022-10-22T01:29:38.639Z,13.40
2022-10-22T01:32:45.823Z,13.40
2022-10-22T01:35:49.648Z,13.30
2022-10-22T01:38:53.356Z,13.30
2022-10-22T01:41:57.319Z,13.30
2022-10-22T01:45:01.773Z,13.10
2022-10-22T01:48:17.882Z,13.10
2022-10-22T01:51:31.101Z,13.10
2022-10-22T01:54:40.840Z,13.10
2022-10-22T01:57:51.111Z,13.10
2022-10-22T02:01:00.818Z,13.00
2022-10-22T02:04:10.647Z,13.00
2022-10-22T02:07:16.641Z,13.00
2022-10-22T02:10:20.656Z,12.90
2022-10-22T02:13:28.517Z,12.90
2022-10-22T02:16:37.573Z,12.80
2022-10-22T02:19:45.612Z,12.70
2022-10-22T02:22:49.069Z,12.70
2022-10-22T02:25:58.356Z,12.70
2022-10-22T02:29:07.977Z,12.70
2022-10-22T02:32:17.711Z,12.70
2022-10-22T02:35:24.310Z,12.70
2022-10-22T02:38:29.348Z,12.70
2022-10-22T02:41:32.750Z,12.70
2022-10-22T02:44:35.880Z,12.70
2022-10-22T02:47:40.370Z,12.70
2022-10-22T02:50:43.663Z,12.70
2022-10-22T02:53:47.088Z,12.70
2022-10-22T02:56:50.189Z,12.80
2022-10-22T02:59:53.338Z,12.80
2022-10-22T03:02:57.809Z,12.70
2022-10-22T03:06:00.954Z,12.70
2022-10-22T03:09:04.262Z,12.70
2022-10-22T03:12:08.664Z,12.70
2022-10-22T03:15:12.155Z,12.60
2022-10-22T03:18:16.645Z,12.60
2022-10-22T03:21:27.336Z,12.60
2022-10-22T03:24:35.290Z,12.60
2022-10-22T03:27:40.268Z,12.50
2022-10-22T03:30:43.686Z,12.50
2022-10-22T03:33:48.182Z,12.50
2022-10-22T03:36:52.409Z,12.50
2022-10-22T03:39:56.204Z,12.50
2022-10-22T03:43:00.126Z,12.50
2022-10-22T03:46:03.243Z,12.40
2022-10-22T03:49:07.706Z,12.40
2022-10-22T03:52:12.460Z,12.40
2022-10-22T03:55:15.547Z,12.30
2022-10-22T03:58:18.673Z,12.40
2022-10-22T04:01:21.788Z,12.40
2022-10-22T04:04:26.377Z,12.20
2022-10-22T04:07:29.635Z,12.20
2022-10-22T04:10:32.918Z,12.20
2022-10-22T04:13:36.331Z,12.20
2022-10-22T04:16:41.092Z,12.20
2022-10-22T04:19:45.583Z,12.10
2022-10-22T04:22:48.700Z,12.10
2022-10-22T04:25:51.830Z,12.10
2022-10-22T04:28:55.127Z,12.00
2022-10-22T04:31:58.224Z,12.00
2022-10-22T04:35:02.654Z,12.00
2022-10-22T04:38:05.737Z,12.00
2022-10-22T04:41:13.480Z,12.00
2022-10-22T04:44:16.685Z,12.00
2022-10-22T04:47:20.751Z,12.00
2022-10-22T04:50:25.233Z,12.00
2022-10-22T04:53:28.418Z,12.00
2022-10-22T04:56:33.392Z,12.00
2022-10-22T04:59:36.561Z,12.00
2022-10-22T05:02:39.704Z,12.00
2022-10-22T05:05:44.282Z,12.00
2022-10-22T05:08:47.967Z,11.90
2022-10-22T05:11:53.922Z,11.90
2022-10-22T05:14:57.141Z,11.90
2022-10-22T05:18:00.235Z,11.90
2022-10-22T05:21:05.273Z,11.90
2022-10-22T05:24:09.047Z,11.80
2022-10-22T05:27:12.411Z,11.90
2022-10-22T05:30:15.583Z,11.90
2022-10-22T05:33:23.215Z,12.00
2022-10-22T05:36:29.045Z,12.00
2022-10-22T05:39:32.130Z,12.00
2022-10-22T05:42:35.316Z,12.00
2022-10-22T05:45:39.059Z,12.10
2022-10-22T05:48:42.280Z,12.10
2022-10-22T05:51:47.022Z,12.10
2022-10-22T05:54:50.263Z,12.20
2022-10-22T05:57:53.347Z,12.20
2022-10-22T06:00:56.589Z,12.20
2022-10-22T06:04:01.889Z,12.20
2022-10-22T06:07:06.359Z,12.20
2022-10-22T06:10:15.247Z,12.30
2022-10-22T06:13:18.397Z,12.30
2022-10-22T06:16:21.537Z,12.40
2022-10-22T06:19:25.781Z,12.40
2022-10-22T06:22:30.226Z,12.50
2022-10-22T06:25:33.334Z,12.50
2022-10-22T06:28:37.115Z,12.50
2022-10-22T06:31:40.740Z,12.60
2022-10-22T06:34:44.045Z,12.70
2022-10-22T06:37:48.611Z,12.80
2022-10-22T06:40:51.786Z,12.90
2022-10-22T06:43:55.800Z,13.00
2022-10-22T06:46:59.025Z,13.10
2022-10-22T06:50:02.123Z,13.10
2022-10-22T06:53:06.810Z,13.10
2022-10-22T06:56:11.721Z,13.10
2022-10-22T06:59:15.109Z,13.30
2022-10-22T07:02:18.213Z,13.40
2022-10-22T07:05:22.029Z,13.50
2022-10-22T07:08:26.523Z,13.70
2022-10-22T07:11:32.129Z,13.70
2022-10-22T07:14:35.446Z,13.80
2022-10-22T07:20:48.032Z,13.90
2022-10-22T07:23:52.709Z,14.00
2022-10-22T07:26:56.061Z,14.00
2022-10-22T07:30:01.119Z,14.00
2022-10-22T07:33:04.225Z,14.00
2022-10-22T07:36:09.541Z,14.00
2022-10-22T07:39:14.063Z,14.10
2022-10-22T07:42:17.504Z,14.10
2022-10-22T07:45:20.682Z,14.20
2022-10-22T07:48:24.231Z,14.20
2022-10-22T07:51:27.357Z,14.40
2022-10-22T07:54:31.862Z,14.40
2022-10-22T07:57:35.074Z,14.30
2022-10-22T08:00:38.445Z,14.30
2022-10-22T08:03:41.546Z,14.30
2022-10-22T08:06:47.281Z,14.30
2022-10-22T08:09:52.533Z,14.30
2022-10-22T08:12:55.718Z,14.30
2022-10-22T08:16:00.028Z,14.20
2022-10-22T08:19:03.149Z,14.20
2022-10-22T08:22:06.287Z,14.10
2022-10-22T08:25:12.691Z,14.10
2022-10-22T08:28:19.872Z,14.20
2022-10-22T08:31:25.151Z,14.30
2022-10-22T08:34:28.339Z,14.30
2022-10-22T08:37:31.543Z,14.40
2022-10-22T08:40:39.685Z,14.50
2022-10-22T08:44:04.054Z,14.70
2022-10-22T08:47:22.685Z,14.80
2022-10-22T08:50:32.077Z,14.80
2022-10-22T08:53:42.802Z,14.80
2022-10-22T08:57:01.265Z,14.90
2022-10-22T09:00:08.325Z,14.90
2022-10-22T09:03:32.806Z,15.00
2022-10-22T09:06:38.110Z,15.10
2022-10-22T09:09:46.820Z,15.20
2022-10-22T09:12:51.732Z,15.20
2022-10-22T09:15:58.808Z,15.30
2022-10-22T09:19:24.909Z,15.40
2022-10-22T09:22:39.766Z,15.50
2022-10-22T09:25:44.985Z,15.60
2022-10-22T09:28:53.010Z,15.70
2022-10-22T09:31:56.197Z,15.80
2022-10-22T09:34:59.969Z,15.80
2022-10-22T09:38:09.814Z,15.90
2022-10-22T09:41:14.108Z,15.90
2022-10-22T09:44:19.664Z,16.00
2022-10-22T09:47:42.582Z,16.00
2022-10-22T09:50:48.639Z,16.10
2022-10-22T09:53:59.404Z,16.20
2022-10-22T09:57:06.304Z,16.30
2022-10-22T10:00:13.777Z,16.40
2022-10-22T10:03:22.757Z,16.40
2022-10-22T10:06:25.993Z,16.40
2022-10-22T10:09:30.612Z,16.30
2022-10-22T10:15:59.366Z,16.30
2022-10-22T10:19:16.046Z,16.30
2022-10-22T10:22:31.537Z,16.20
2022-10-22T10:25:46.432Z,16.30
2022-10-22T10:29:01.497Z,16.30
2022-10-22T10:32:23.575Z,16.30
2022-10-22T10:35:32.151Z,16.30
2022-10-22T10:38:44.369Z,16.40
2022-10-22T10:41:54.065Z,16.40
2022-10-22T10:45:06.930Z,16.40
2022-10-22T10:48:38.103Z,16.50
2022-10-22T10:51:51.309Z,16.50
2022-10-22T10:55:02.536Z,16.50
2022-10-22T10:58:18.252Z,16.60
2022-10-22T11:01:26.239Z,16.60
2022-10-22T11:05:09.538Z,16.60
2022-10-22T11:08:16.405Z,16.70
2022-10-22T11:11:25.176Z,16.70
2022-10-22T11:14:36.973Z,16.60
2022-10-22T11:17:43.779Z,16.70
2022-10-22T11:20:56.456Z,16.80
2022-10-22T11:24:11.164Z,16.90
2022-10-22T11:27:25.743Z,17.10
2022-10-22T11:30:33.460Z,17.20
2022-10-22T11:33:43.696Z,17.40
2022-10-22T11:36:49.464Z,17.60
2022-10-22T11:39:55.383Z,17.60
2022-10-22T11:43:00.194Z,17.70
2022-10-22T11:46:26.666Z,17.70
2022-10-22T11:49:43.842Z,17.70
2022-10-22T11:52:56.054Z,17.70
2022-10-22T11:56:04.446Z,17.60
2022-10-22T11:59:36.444Z,17.50
2022-10-22T12:02:44.718Z,17.30
2022-10-22T12:05:48.258Z,17.30
2022-10-22T12:09:07.582Z,17.30
2022-10-22T12:12:16.846Z,17.30
2022-10-22T12:15:27.153Z,17.30
2022-10-22T12:18:36.500Z,17.30
2022-10-22T12:21:41.207Z,17.30
2022-10-22T12:24:49.474Z,17.30
2022-10-22T12:27:55.007Z,17.20
2022-10-22T12:31:01.124Z,17.10
2022-10-22T12:34:04.786Z,17.00
2022-10-22T12:37:08.360Z,16.90
2022-10-22T12:40:21.148Z,16.80
2022-10-22T12:43:27.529Z,16.70
2022-10-22T12:46:33.292Z,16.80
2022-10-22T12:49:39.937Z,16.70
2022-10-22T12:52:43.447Z,16.80
2022-10-22T12:55:51.191Z,16.80
2022-10-22T12:58:57.516Z,16.80
2022-10-22T13:02:01.006Z,16.80
2022-10-22T13:05:22.810Z,16.80
2022-10-22T13:08:29.771Z,16.80
2022-10-22T13:11:38.896Z,16.80
2022-10-22T13:14:42.188Z,16.80
2022-10-22T13:17:46.075Z,16.80
2022-10-22T13:20:59.595Z,16.80
2022-10-22T13:24:05.804Z,16.80
2022-10-22T13:27:12.796Z,16.80
2022-10-22T13:30:21.613Z,16.70
2022-10-22T13:33:28.686Z,16.70
2022-10-22T13:36:32.878Z,16.60
2022-10-22T13:39:37.455Z,16.50
2022-10-22T13:42:44.157Z,16.50
2022-10-22T13:45:50.630Z,16.50
2022-10-22T13:48:56.451Z,16.40
2022-10-22T13:52:01.121Z,16.50
2022-10-22T13:55:13.500Z,16.40
2022-10-22T13:58:19.709Z,16.40
2022-10-22T14:01:25.940Z,16.40
2022-10-22T14:04:29.174Z,16.40
2022-10-22T14:07:32.512Z,16.40
2022-10-22T14:10:36.010Z,16.30
2022-10-22T14:13:40.630Z,16.30
2022-10-22T14:16:43.803Z,16.30
2022-10-22T14:19:49.637Z,16.30
2022-10-22T14:22:53.863Z,16.30
2022-10-22T14:25:58.185Z,16.20
2022-10-22T14:29:11.687Z,16.30
2022-10-22T14:32:16.602Z,16.20
2022-10-22T14:35:23.838Z,16.20
2022-10-22T14:38:27.153Z,16.20
2022-10-22T14:41:31.017Z,16.20
2022-10-22T14:44:35.692Z,16.20
2022-10-22T14:47:39.268Z,16.10
2022-10-22T14:50:42.647Z,16.10
2022-10-22T14:53:46.219Z,16.10
2022-10-22T14:56:49.328Z,16.10
2022-10-22T14:59:54.920Z,16.00
2022-10-22T15:03:03.320Z,16.00
2022-10-22T15:06:08.821Z,16.00
2022-10-22T15:09:12.181Z,16.00
2022-10-22T15:12:15.653Z,16.00
2022-10-22T15:15:22.714Z,15.90
2022-10-22T15:18:27.628Z,15.90
2022-10-22T15:21:30.893Z,15.90
2022-10-22T15:24:34.421Z,15.80
2022-10-22T15:27:38.026Z,15.80
2022-10-22T15:30:42.556Z,15.80
2022-10-22T15:33:45.813Z,15.70
2022-10-22T15:36:48.982Z,15.70
2022-10-22T15:39:52.142Z,15.60
2022-10-22T15:42:55.658Z,15.60
2022-10-22T15:46:11.832Z,15.60
2022-10-22T15:49:15.159Z,15.60
2022-10-22T15:52:18.309Z,15.50
2022-10-22T15:55:21.898Z,15.50
2022-10-22T15:58:25.629Z,15.60
2022-10-22T16:01:30.381Z,15.70
2022-10-22T16:04:33.677Z,15.70
2022-10-22T16:07:36.784Z,15.80
2022-10-22T16:10:45.928Z,15.70
2022-10-22T16:13:49.322Z,15.70
2022-10-22T16:16:55.771Z,15.70
2022-10-22T16:19:59.219Z,15.60
2022-10-22T16:23:02.572Z,15.60
2022-10-22T16:26:06.304Z,15.60
2022-10-22T16:29:11.842Z,15.60
2022-10-22T16:32:17.884Z,15.70
2022-10-22T16:35:21.081Z,15.70
2022-10-22T16:38:24.696Z,15.60
2022-10-22T16:41:35.010Z,15.50
2022-10-22T16:44:38.177Z,15.40
2022-10-22T16:47:43.440Z,15.40
2022-10-22T16:50:47.631Z,15.40
2022-10-22T16:53:54.207Z,15.40
2022-10-22T16:56:57.820Z,15.40
2022-10-22T17:00:01.800Z,15.40
2022-10-22T17:03:08.071Z,15.30
2022-10-22T17:06:13.106Z,15.20
2022-10-22T17:09:16.826Z,15.20
2022-10-22T17:12:21.110Z,15.10
2022-10-22T17:15:27.562Z,15.00
2022-10-22T17:18:33.297Z,15.00
2022-10-22T17:21:47.050Z,14.90
2022-10-22T17:25:09.680Z,14.90
2022-10-22T17:28:13.930Z,14.80
2022-10-22T17:31:20.529Z,14.80
2022-10-22T17:34:25.689Z,14.70
2022-10-22T17:37:30.443Z,14.70
2022-10-22T17:40:34.389Z,14.60
2022-10-22T17:43:39.388Z,14.50
2022-10-22T17:46:43.998Z,14.50
2022-10-22T17:49:49.911Z,14.40
2022-10-22T17:52:54.331Z,14.40
2022-10-22T17:56:02.191Z,14.40
2022-10-22T17:59:06.366Z,14.40
2022-10-22T18:02:16.560Z,14.30
2022-10-22T18:05:22.311Z,14.20
2022-10-22T18:08:28.081Z,14.20
2022-10-22T18:11:32.815Z,14.20
2022-10-22T18:14:37.110Z,14.20
2022-10-22T18:17:41.998Z,14.10
2022-10-22T18:20:50.938Z,14.10
2022-10-22T18:23:55.223Z,14.00
2022-10-22T18:26:59.532Z,14.00
2022-10-22T18:30:04.009Z,13.90
2022-10-22T18:33:08.396Z,13.90
2022-10-22T18:36:19.574Z,13.90
2022-10-22T18:39:23.973Z,13.90
2022-10-22T18:42:31.867Z,13.80
2022-10-22T18:45:38.396Z,13.70
2022-10-22T18:48:45.583Z,13.70
2022-10-22T18:51:55.062Z,13.70
2022-10-22T18:55:00.443Z,13.70
2022-10-22T18:58:04.497Z,13.60
2022-10-22T19:01:12.656Z,13.60
2022-10-22T19:04:18.490Z,13.60
2022-10-22T19:07:26.802Z,13.50
2022-10-22T19:10:33.457Z,13.50
2022-10-22T19:13:36.968Z,13.40
2022-10-22T19:16:40.936Z,13.40
2022-10-22T19:19:46.971Z,13.40
2022-10-22T19:22:53.504Z,13.40
2022-10-22T19:26:05.497Z,13.30
2022-10-22T19:29:11.123Z,13.30
2022-10-22T19:32:15.762Z,13.30
2022-10-22T19:35:20.775Z,13.20
2022-10-22T19:38:30.125Z,13.20
2022-10-22T19:41:34.836Z,13.30
2022-10-22T19:44:39.292Z,13.20
2022-10-22T19:47:44.085Z,13.20
2022-10-22T19:50:48.991Z,13.10
2022-10-22T19:54:00.451Z,13.10
2022-10-22T19:57:03.990Z,13.10
2022-10-22T20:00:08.920Z,13.00
2022-10-22T20:03:15.969Z,13.00
2022-10-22T20:06:20.583Z,13.00
2022-10-22T20:09:25.292Z,12.80
2022-10-22T20:12:30.581Z,12.80
2022-10-22T20:15:36.929Z,12.70
2022-10-22T20:18:43.739Z,12.70
2022-10-22T20:21:48.544Z,12.70
2022-10-22T20:24:56.673Z,12.60
2022-10-22T20:28:00.169Z,12.60
2022-10-22T20:31:08.994Z,12.60
2022-10-22T20:34:13.306Z,12.60
2022-10-22T20:37:16.696Z,12.60
2022-10-22T20:40:21.562Z,12.60
2022-10-22T20:43:25.363Z,12.50
2022-10-22T20:46:31.250Z,12.50
2022-10-22T20:49:34.517Z,12.50
2022-10-22T20:52:38.111Z,12.40
2022-10-22T20:55:43.932Z,12.40
2022-10-22T20:58:49.090Z,12.40
2022-10-22T21:01:53.934Z,12.30
2022-10-22T21:04:57.681Z,12.30
2022-10-22T21:08:02.174Z,12.10
2022-10-22T21:11:07.193Z,12.00
2022-10-22T21:14:13.139Z,11.90
2022-10-22T21:17:16.414Z,11.90
2022-10-22T21:20:22.374Z,11.90
2022-10-22T21:23:27.895Z,11.90
2022-10-22T21:26:32.409Z,11.80
2022-10-22T21:29:35.509Z,11.80
2022-10-22T21:32:38.774Z,11.60
2022-10-22T21:35:42.032Z,11.70
2022-10-22T21:38:45.388Z,11.70
2022-10-22T21:41:49.902Z,11.70
2022-10-22T21:44:53.161Z,11.70
2022-10-22T21:47:56.325Z,11.80
2022-10-22T21:50:59.483Z,11.70
2022-10-22T21:54:02.931Z,11.60
2022-10-22T21:57:07.465Z,11.60
2022-10-22T22:00:12.266Z,11.60
2022-10-22T22:03:15.380Z,11.70
2022-10-22T22:06:21.477Z,11.70
2022-10-22T22:09:25.235Z,11.80
2022-10-22T22:12:29.756Z,11.90
2022-10-22T22:15:34.723Z,12.10
2022-10-22T22:18:38.295Z,12.00
2022-10-22T22:21:42.302Z,12.00
2022-10-22T22:24:45.465Z,12.10
2022-10-22T22:27:49.959Z,12.20
2022-10-22T22:30:53.090Z,12.30
2022-10-22T22:34:00.405Z,12.30
2022-10-22T22:37:03.543Z,12.20
2022-10-22T22:40:07.533Z,12.20
2022-10-22T22:43:13.124Z,12.20
2022-10-22T22:46:16.273Z,12.10
2022-10-22T22:49:19.393Z,12.20
2022-10-22T22:52:22.559Z,12.20
2022-10-22T22:55:26.704Z,12.20
2022-10-22T22:58:31.274Z,12.20
2022-10-22T23:01:36.130Z,12.30
2022-10-22T23:04:39.348Z,12.30
2022-10-22T23:07:42.496Z,12.30
2022-10-22T23:10:45.610Z,12.30
2022-10-22T23:13:53.567Z,12.30
2022-10-22T23:16:56.673Z,12.30
2022-10-22T23:19:59.875Z,12.30
2022-10-22T23:23:06.112Z,12.30
2022-10-22T23:26:12.497Z,12.30
2022-10-22T23:29:19.530Z,12.30
2022-10-22T23:32:22.711Z,12.20
2022-10-22T23:35:25.899Z,12.20
2022-10-22T23:38:29.210Z,12.20
2022-10-22T23:41:32.393Z,12.20
2022-10-22T23:44:36.920Z,12.20
2022-10-22T23:47:40.576Z,12.20
2022-10-22T23:50:44.009Z,12.20
2022-10-22T23:53:47.863Z,12.10
2022-10-22T23:56:51.099Z,12.10
2022-10-22T23:59:56.013Z,12.00
